Time;durP1;ratioP1;P1;durP2;ratioP2;P2;SDS_P1;SDS_P2;PMS_P1;PMS_P2;Temp;Humidity;BMP_temperature;BMP_pressure;BME280_temperature;BME280_humidity;BME280_pressure;Samples;Min_cycle;Max_cycle;Signal;HPM_P1;HPM_P2
2021/09/30 00:00:24;;;;;;;6.28;3.42;;;10.90;78.10;;;;;;1953953;73;21342;-48
2021/09/30 00:02:53;;;;;;;12.25;5.10;;;10.80;78.00;;;;;;1954035;73;21084;-49
2021/09/30 00:05:22;;;;;;;7.30;5.20;;;10.80;77.90;;;;;;1953996;73;21042;-48
2021/09/30 00:07:52;;;;;;;5.95;4.65;;;10.80;78.10;;;;;;1954091;73;21043;-46
2021/09/30 00:10:23;;;;;;;5.10;3.95;;;10.80;78.00;;;;;;1954093;73;21120;-45
2021/09/30 00:13:06;;;;;;;7.25;4.92;;;10.80;78.60;;;;;;1928193;73;21490;-47
2021/09/30 00:35:26;;;;;;;4.83;4.20;;;10.60;78.50;;;;;;1954168;73;21023;-48
2021/09/30 00:40:32;;;;;;;7.67;4.33;;;10.60;78.60;;;;;;1902301;73;21038;-45
2021/09/30 00:45:50;;;;;;;6.20;4.35;;;10.50;78.70;;;;;;1954068;73;21076;-48
2021/09/30 00:48:59;;;;;;;7.83;5.20;;;10.50;78.60;;;;;;1953546;73;21077;-46
2021/09/30 00:54:10;;;;;;;6.78;3.98;;;10.50;78.60;;;;;;1954159;73;21014;-45
2021/09/30 01:25:32;;;;;;;7.03;4.40;;;10.30;78.70;;;;;;1954155;73;21042;-48
2021/09/30 01:33:21;;;;;;;8.03;4.75;;;10.20;79.00;;;;;;1949509;73;21042;-49
2021/09/30 02:29:14;;;;;;;7.00;5.03;;;10.00;78.80;;;;;;1933599;73;21029;-49
2021/09/30 02:34:56;;;;;;;6.92;5.72;;;10.00;78.80;;;;;;1933621;73;21033;-49
2021/09/30 02:59:15;;;;;;;6.80;5.30;;;9.80;79.10;;;;;;1930148;74;21049;-46
2021/09/30 03:01:48;;;;;;;6.65;4.87;;;9.80;79.30;;;;;;1929719;74;21048;-48
2021/09/30 03:04:19;;;;;;;8.40;6.00;;;9.80;79.30;;;;;;1930031;74;21013;-49
2021/09/30 03:06:49;;;;;;;8.30;5.87;;;9.80;79.20;;;;;;1930012;74;20977;-49
2021/09/30 03:09:21;;;;;;;8.73;6.53;;;9.80;79.20;;;;;;1930151;74;21005;-48
2021/09/30 03:11:53;;;;;;;10.43;6.15;;;9.80;79.20;;;;;;1930191;73;20981;-50
2021/09/30 03:14:22;;;;;;;11.00;6.10;;;9.70;79.30;;;;;;1930095;74;21025;-47
2021/09/30 03:16:53;;;;;;;6.67;5.62;;;9.70;79.40;;;;;;1930013;74;21534;-48
2021/09/30 03:22:14;;;;;;;8.45;6.25;;;9.60;79.60;;;;;;1930404;73;21029;-46
2021/09/30 03:24:50;;;;;;;7.37;5.25;;;9.60;79.90;;;;;;1930168;74;21469;-46
2021/09/30 03:27:20;;;;;;;6.80;5.70;;;9.60;79.70;;;;;;1930173;74;21010;-48
2021/09/30 03:29:50;;;;;;;7.03;5.67;;;9.60;79.80;;;;;;1930084;74;21001;-46
2021/09/30 03:32:20;;;;;;;8.35;5.40;;;9.50;79.60;;;;;;1930049;73;20986;-49
2021/09/30 03:35:00;;;;;;;7.95;6.42;;;9.60;80.00;;;;;;1911717;74;21053;-49
2021/09/30 03:37:30;;;;;;;7.37;5.30;;;9.60;79.90;;;;;;1930093;74;20985;-48
2021/09/30 03:39:59;;;;;;;8.08;6.03;;;9.60;79.60;;;;;;1930089;74;21009;-49
2021/09/30 03:42:28;;;;;;;7.22;5.90;;;9.60;79.60;;;;;;1930207;73;21071;-48
2021/09/30 03:44:59;;;;;;;9.23;6.03;;;9.60;79.60;;;;;;1933553;74;21033;-49
2021/09/30 03:47:29;;;;;;;10.15;6.12;;;9.60;79.60;;;;;;1933787;74;21048;-47
2021/09/30 03:50:00;;;;;;;7.65;5.87;;;9.60;79.90;;;;;;1933098;74;21040;-49
2021/09/30 03:52:45;;;;;;;7.62;5.87;;;9.60;79.80;;;;;;1933555;74;21145;-49
2021/09/30 03:55:24;;;;;;;9.35;6.05;;;9.70;80.00;;;;;;1930738;74;21457;-48
2021/09/30 04:00:26;;;;;;;8.40;5.67;;;9.80;79.70;;;;;;1933727;73;21033;-49
2021/09/30 04:02:55;;;;;;;6.28;5.65;;;9.90;79.60;;;;;;1933693;73;21017;-48
2021/09/30 04:05:24;;;;;;;7.22;5.75;;;9.90;79.80;;;;;;1933792;74;21525;-45
2021/09/30 04:07:54;;;;;;;8.00;6.42;;;9.90;79.70;;;;;;1933616;74;21021;-46
2021/09/30 04:10:24;;;;;;;9.40;5.87;;;9.90;79.50;;;;;;1933806;74;21072;-49
2021/09/30 04:12:53;;;;;;;11.75;5.83;;;9.80;79.70;;;;;;1933652;73;20990;-49
2021/09/30 04:15:22;;;;;;;7.90;5.90;;;9.80;79.40;;;;;;1933765;74;21053;-50
2021/09/30 04:17:52;;;;;;;7.35;6.15;;;9.70;79.40;;;;;;1933609;74;21096;-49
2021/09/30 04:20:22;;;;;;;9.55;6.12;;;9.70;80.10;;;;;;1933669;73;21036;-46
2021/09/30 04:22:53;;;;;;;8.00;5.78;;;9.70;79.90;;;;;;1933376;74;21434;-50
2021/09/30 04:25:24;;;;;;;12.63;4.42;;;9.70;79.90;;;;;;1933606;73;21525;-48
2021/09/30 04:27:53;;;;;;;7.35;6.08;;;9.70;79.50;;;;;;1933766;74;21001;-48
2021/09/30 04:30:23;;;;;;;6.50;5.53;;;9.70;79.40;;;;;;1933690;74;21017;-48
2021/09/30 04:33:00;;;;;;;7.65;5.75;;;9.60;79.60;;;;;;1930243;74;21021;-48
2021/09/30 04:35:29;;;;;;;8.63;5.55;;;9.70;80.00;;;;;;1933739;74;21013;-46
2021/09/30 04:37:59;;;;;;;7.97;5.70;;;9.70;79.70;;;;;;1933689;74;21416;-46
2021/09/30 04:40:28;;;;;;;7.30;5.25;;;9.70;79.60;;;;;;1933776;74;21037;-48
2021/09/30 04:42:58;;;;;;;8.78;6.53;;;9.70;79.30;;;;;;1933724;74;21044;-49
2021/09/30 04:45:27;;;;;;;9.15;6.53;;;9.70;79.10;;;;;;1930281;73;21025;-49
2021/09/30 04:47:58;;;;;;;7.08;4.97;;;9.70;79.40;;;;;;1929132;74;21111;-46
2021/09/30 04:50:28;;;;;;;7.08;4.47;;;9.80;79.50;;;;;;1930184;74;21170;-47
2021/09/30 04:53:02;;;;;;;7.20;5.85;;;9.80;78.90;;;;;;1930076;74;20989;-49
2021/09/30 04:55:30;;;;;;;6.05;4.35;;;9.80;79.00;;;;;;1929993;74;21058;-49
2021/09/30 04:57:59;;;;;;;7.92;5.58;;;9.80;79.10;;;;;;1930140;74;21068;-47
2021/09/30 05:00:29;;;;;;;5.67;4.17;;;9.80;79.00;;;;;;1900361;74;21044;-47
2021/09/30 05:03:09;;;;;;;6.55;5.55;;;9.90;78.80;;;;;;1928908;74;21132;-46
2021/09/30 05:05:38;;;;;;;6.12;5.35;;;9.90;78.90;;;;;;1930088;74;21056;-48
2021/09/30 05:08:09;;;;;;;8.45;5.87;;;10.00;78.70;;;;;;1930072;74;21083;-49
2021/09/30 05:10:42;;;;;;;11.38;6.30;;;10.00;78.40;;;;;;1929867;74;21061;-47
2021/09/30 05:13:17;;;;;;;5.92;5.33;;;10.00;78.40;;;;;;1929915;73;21073;-48
2021/09/30 05:15:47;;;;;;;9.65;6.58;;;10.00;78.40;;;;;;1930499;73;20997;-48
2021/09/30 05:18:18;;;;;;;7.85;5.50;;;10.10;78.30;;;;;;1922538;74;21057;-48
2021/09/30 05:20:47;;;;;;;6.95;5.40;;;10.10;78.10;;;;;;1930130;74;21006;-50
2021/09/30 05:23:16;;;;;;;9.18;5.53;;;10.20;78.10;;;;;;1930064;74;21110;-49
2021/09/30 05:25:46;;;;;;;10.55;5.08;;;10.20;77.90;;;;;;1930186;74;21009;-49
2021/09/30 05:28:16;;;;;;;6.78;5.08;;;10.30;77.80;;;;;;1930145;74;21001;-48
2021/09/30 05:30:45;;;;;;;7.60;5.55;;;10.30;76.90;;;;;;1930130;74;21056;-46
2021/09/30 05:33:19;;;;;;;11.57;4.78;;;10.30;77.10;;;;;;1927348;74;21515;-49
2021/09/30 05:35:49;;;;;;;7.20;5.17;;;10.30;77.20;;;;;;1930203;74;21029;-49
2021/09/30 05:38:19;;;;;;;6.00;3.37;;;10.30;76.60;;;;;;1930126;74;21005;-47
2021/09/30 05:40:49;;;;;;;5.80;4.65;;;10.20;76.20;;;;;;1930248;74;21014;-49
2021/09/30 05:43:25;;;;;;;4.90;4.47;;;10.30;76.50;;;;;;1930146;74;21017;-45
2021/09/30 05:45:55;;;;;;;8.60;6.33;;;10.30;76.50;;;;;;1929992;73;21100;-50
2021/09/30 05:48:23;;;;;;;9.55;6.58;;;10.30;76.50;;;;;;1930091;74;21114;-46
2021/09/30 05:50:54;;;;;;;8.73;6.20;;;10.40;76.60;;;;;;1930206;73;21052;-49
2021/09/30 05:53:43;;;;;;;10.38;7.17;;;10.40;75.90;;;;;;1927006;74;21061;-46
2021/09/30 05:56:20;;;;;;;10.45;8.05;;;10.40;76.40;;;;;;1927766;74;21523;-48
2021/09/30 05:58:49;;;;;;;15.93;8.85;;;10.50;76.10;;;;;;1930273;74;21017;-47
2021/09/30 06:12:35;;;;;;;13.60;8.23;;;10.60;75.40;;;;;;1930072;74;21037;-47
2021/09/30 06:15:03;;;;;;;12.78;9.05;;;10.60;75.70;;;;;;1929988;74;21103;-48
2021/09/30 06:17:35;;;;;;;26.27;12.35;;;10.70;76.00;;;;;;1930180;74;21385;-45
2021/09/30 06:20:05;;;;;;;12.13;8.00;;;10.80;76.20;;;;;;1930002;74;21041;-49
2021/09/30 06:22:35;;;;;;;14.93;10.28;;;10.80;75.70;;;;;;1930074;74;21018;-48
2021/09/30 06:25:05;;;;;;;18.25;10.15;;;10.90;75.50;;;;;;1930119;74;21013;-46
2021/09/30 06:27:36;;;;;;;14.68;8.53;;;11.00;75.90;;;;;;1930014;74;21049;-45
2021/09/30 06:30:06;;;;;;;19.70;11.38;;;11.00;74.90;;;;;;1930078;74;21017;-48
2021/09/30 06:32:36;;;;;;;16.12;10.00;;;11.00;74.90;;;;;;1930116;74;20997;-46
2021/09/30 06:35:19;;;;;;;17.35;8.95;;;11.10;75.00;;;;;;1930137;74;21125;-47
2021/09/30 06:37:50;;;;;;;12.35;8.03;;;11.10;75.10;;;;;;1928698;74;21065;-46
2021/09/30 06:40:21;;;;;;;10.75;7.22;;;11.20;74.80;;;;;;1930080;74;21017;-47
2021/09/30 06:42:51;;;;;;;12.00;7.70;;;11.20;74.60;;;;;;1929913;73;20993;-47
2021/09/30 06:45:39;;;;;;;9.83;7.75;;;11.30;74.20;;;;;;1930058;73;21045;-48
2021/09/30 06:48:27;;;;;;;11.18;8.63;;;11.30;74.00;;;;;;1929863;74;21026;-46
2021/09/30 06:50:58;;;;;;;18.92;11.40;;;11.30;73.90;;;;;;1929711;74;21061;-48
2021/09/30 06:53:29;;;;;;;13.15;7.55;;;11.40;74.20;;;;;;1929737;74;21057;-48
2021/09/30 06:56:13;;;;;;;9.03;7.67;;;11.50;74.20;;;;;;1929865;73;21119;-47
2021/09/30 06:58:58;;;;;;;7.97;4.78;;;11.60;74.00;;;;;;1938032;73;21045;-45
2021/09/30 07:01:43;;;;;;;12.03;8.55;;;11.70;73.80;;;;;;1959801;73;21073;-47
2021/09/30 07:04:31;;;;;;;9.90;7.00;;;11.80;74.30;;;;;;1935043;73;21033;-48
2021/09/30 07:07:04;;;;;;;13.03;5.83;;;12.00;73.70;;;;;;1932063;73;21025;-46
2021/09/30 07:09:33;;;;;;;6.87;6.05;;;12.10;73.50;;;;;;1959759;73;21096;-50
2021/09/30 07:12:04;;;;;;;13.15;6.87;;;12.20;73.40;;;;;;1959910;73;21026;-45
2021/09/30 07:14:34;;;;;;;6.70;5.55;;;12.40;73.00;;;;;;1959685;72;21073;-48
2021/09/30 07:17:03;;;;;;;7.50;5.83;;;12.50;71.50;;;;;;1959887;72;21116;-48
2021/09/30 07:19:33;;;;;;;6.35;3.52;;;12.60;71.80;;;;;;1958419;73;21085;-48
2021/09/30 07:22:04;;;;;;;8.70;5.03;;;12.80;73.40;;;;;;1959296;72;21018;-49
2021/09/30 07:53:30;;;;;;;6.10;4.05;;;13.10;67.70;;;;;;1958234;72;26324;-45
2021/09/30 07:56:00;;;;;;;8.55;6.35;;;13.10;67.50;;;;;;1917693;75;21027;-52
2021/09/30 07:58:29;;;;;;;4.60;3.37;;;13.00;68.20;;;;;;1917706;75;21027;-47
2021/09/30 08:00:59;;;;;;;8.10;3.27;;;13.00;68.20;;;;;;1917631;75;21054;-46
2021/09/30 08:03:29;;;;;;;4.72;4.22;;;13.00;67.30;;;;;;1917808;73;21093;-49
2021/09/30 08:05:59;;;;;;;4.35;3.37;;;13.10;67.90;;;;;;1917779;75;21020;-51
2021/09/30 08:08:28;;;;;;;4.87;3.92;;;13.20;67.70;;;;;;1917782;74;21007;-48
2021/09/30 08:10:59;;;;;;;6.53;3.45;;;13.40;67.40;;;;;;1917622;74;21077;-49
2021/09/30 08:13:34;;;;;;;5.30;3.27;;;13.50;67.30;;;;;;1896485;75;21096;-52
2021/09/30 08:16:00;;;;;;;6.83;4.33;;;13.70;66.30;;;;;;1884682;76;21082;-50
2021/09/30 08:18:29;;;;;;;5.87;4.92;;;13.90;66.60;;;;;;1884905;76;21120;-48
2021/09/30 08:20:59;;;;;;;8.15;5.97;;;14.00;66.40;;;;;;1884994;76;21151;-48
2021/09/30 08:23:29;;;;;;;3.70;3.40;;;14.00;64.40;;;;;;1884934;76;21097;-51
2021/09/30 08:25:58;;;;;;;4.10;3.27;;;14.00;64.20;;;;;;1884900;76;21085;-51
2021/09/30 08:28:28;;;;;;;4.30;3.30;;;13.90;64.80;;;;;;1884978;76;21038;-50
2021/09/30 08:30:57;;;;;;;4.47;3.60;;;13.90;65.00;;;;;;1885077;76;21092;-49
2021/09/30 08:33:27;;;;;;;5.08;4.22;;;13.90;65.20;;;;;;1884886;76;21096;-46
2021/09/30 08:35:57;;;;;;;10.08;5.17;;;13.90;66.20;;;;;;1884848;76;21085;-49
2021/09/30 08:38:26;;;;;;;3.65;2.87;;;14.00;65.60;;;;;;1884895;76;21006;-50
2021/09/30 08:40:55;;;;;;;4.80;3.20;;;14.00;65.10;;;;;;1884846;75;21129;-51
2021/09/30 08:43:25;;;;;;;6.20;4.08;;;14.10;64.50;;;;;;1885059;76;21007;-51
2021/09/30 08:45:55;;;;;;;6.62;2.77;;;14.20;64.80;;;;;;1884902;76;21131;-48
2021/09/30 08:48:25;;;;;;;8.20;3.75;;;14.30;64.70;;;;;;1884878;75;21053;-50
2021/09/30 08:50:54;;;;;;;6.45;4.30;;;14.50;64.20;;;;;;1885023;75;21058;-49
2021/09/30 08:53:24;;;;;;;3.17;2.90;;;14.60;63.40;;;;;;1876072;75;21102;-49
2021/09/30 08:55:54;;;;;;;4.12;3.00;;;14.60;62.80;;;;;;1872606;76;21042;-50
2021/09/30 08:58:23;;;;;;;7.05;3.80;;;14.60;63.10;;;;;;1872636;76;21085;-51
2021/09/30 09:00:58;;;;;;;3.67;1.92;;;14.60;62.60;;;;;;1872701;75;21051;-50
2021/09/30 09:03:48;;;;;;;3.37;3.08;;;14.60;62.90;;;;;;1872363;76;21477;-47
2021/09/30 09:06:34;;;;;;;4.12;3.10;;;14.50;63.30;;;;;;1872129;77;21085;-49
2021/09/30 09:09:27;;;;;;;7.87;4.17;;;14.50;62.60;;;;;;1872187;76;21026;-51
2021/09/30 09:11:58;;;;;;;5.08;4.15;;;14.40;63.70;;;;;;1872122;77;21019;-47
2021/09/30 09:14:29;;;;;;;5.65;2.83;;;14.40;64.00;;;;;;1872051;75;21551;-47
2021/09/30 09:17:01;;;;;;;4.58;3.30;;;14.30;63.40;;;;;;1872187;77;21023;-50
2021/09/30 09:19:32;;;;;;;4.30;3.05;;;14.20;63.00;;;;;;1872078;76;21530;-51
2021/09/30 09:22:07;;;;;;;5.95;3.67;;;14.10;63.60;;;;;;1872191;77;21117;-51
2021/09/30 09:24:36;;;;;;;7.87;4.47;;;14.10;63.50;;;;;;1872334;77;21031;-51
2021/09/30 09:27:06;;;;;;;4.17;2.90;;;14.10;63.90;;;;;;1872087;76;21039;-51
2021/09/30 09:29:36;;;;;;;3.00;2.55;;;14.10;64.20;;;;;;1871824;75;21031;-49
2021/09/30 09:32:06;;;;;;;3.67;3.37;;;14.10;63.70;;;;;;1872029;76;21098;-51
2021/09/30 09:34:36;;;;;;;6.00;3.17;;;14.10;63.80;;;;;;1872083;76;21099;-51
2021/09/30 09:37:31;;;;;;;6.90;3.75;;;14.20;63.50;;;;;;1871803;77;21199;-48
2021/09/30 09:40:01;;;;;;;3.42;3.08;;;14.20;63.90;;;;;;1871919;77;21106;-47
2021/09/30 09:42:31;;;;;;;4.25;3.22;;;14.30;63.80;;;;;;1871261;76;21034;-50
2021/09/30 09:45:03;;;;;;;5.47;3.80;;;14.40;63.20;;;;;;1872283;76;21027;-50
2021/09/30 09:47:35;;;;;;;5.55;2.55;;;14.40;63.10;;;;;;1872008;77;21044;-49
2021/09/30 09:50:16;;;;;;;6.75;3.20;;;14.40;62.80;;;;;;1872121;76;21129;-50
2021/09/30 09:53:02;;;;;;;5.55;4.40;;;14.40;63.20;;;;;;1874170;75;21105;-50
2021/09/30 09:55:41;;;;;;;6.65;3.60;;;14.50;63.60;;;;;;1881386;75;21085;-47
2021/09/30 09:58:17;;;;;;;2.87;2.58;;;14.40;63.00;;;;;;1881637;76;21078;-50
2021/09/30 10:00:55;;;;;;;6.55;3.47;;;14.40;63.10;;;;;;1881561;76;21108;-49
2021/09/30 10:03:26;;;;;;;5.22;3.60;;;14.50;63.10;;;;;;1881363;76;21050;-50
2021/09/30 10:05:58;;;;;;;4.12;3.42;;;14.50;62.50;;;;;;1881619;76;21171;-50
2021/09/30 10:08:29;;;;;;;5.65;3.35;;;14.50;62.60;;;;;;1881328;76;21477;-50
2021/09/30 10:10:59;;;;;;;6.55;3.60;;;14.50;62.50;;;;;;1881402;76;21082;-50
2021/09/30 10:13:32;;;;;;;5.60;3.70;;;14.50;63.00;;;;;;1881421;76;21022;-51
2021/09/30 10:16:00;;;;;;;4.97;4.15;;;14.50;62.30;;;;;;1881520;75;21547;-47
2021/09/30 10:18:29;;;;;;;7.55;4.47;;;14.50;62.90;;;;;;1881450;76;21023;-51
2021/09/30 10:20:59;;;;;;;7.15;4.83;;;14.60;63.20;;;;;;1881539;75;21043;-50
2021/09/30 10:23:31;;;;;;;5.53;3.90;;;14.60;63.40;;;;;;1881407;76;21097;-49
2021/09/30 10:26:19;;;;;;;4.65;3.25;;;14.70;63.00;;;;;;1881619;76;21046;-50
2021/09/30 10:28:48;;;;;;;8.08;4.10;;;14.80;62.30;;;;;;1881522;75;21003;-49
2021/09/30 10:31:32;;;;;;;6.15;3.98;;;14.80;62.20;;;;;;1881333;76;21023;-46
2021/09/30 10:34:04;;;;;;;7.58;3.22;;;14.80;62.30;;;;;;1881643;76;21067;-46
2021/09/30 10:36:38;;;;;;;3.85;3.17;;;14.90;62.40;;;;;;1881476;75;21093;-49
2021/09/30 10:39:22;;;;;;;9.93;4.80;;;15.00;62.60;;;;;;1881577;76;21027;-50
2021/09/30 10:41:54;;;;;;;7.95;3.20;;;15.20;62.60;;;;;;1881502;75;21082;-50
2021/09/30 10:44:26;;;;;;;5.25;3.80;;;15.30;61.90;;;;;;1880736;76;21069;-49
2021/09/30 10:46:58;;;;;;;6.90;3.67;;;15.50;62.10;;;;;;1881434;76;21488;-50
2021/09/30 10:49:33;;;;;;;6.25;3.50;;;15.60;60.80;;;;;;1859503;76;21030;-47
2021/09/30 10:52:26;;;;;;;6.17;3.45;;;15.70;61.20;;;;;;1881616;76;21481;-50
2021/09/30 10:55:06;;;;;;;11.78;2.75;;;15.70;61.10;;;;;;1873291;76;21050;-47
2021/09/30 10:57:41;;;;;;;2.83;2.60;;;15.70;60.20;;;;;;1872225;76;20999;-50
2021/09/30 11:00:13;;;;;;;14.93;4.20;;;15.80;59.80;;;;;;1872138;76;21039;-47
2021/09/30 11:03:12;;;;;;;4.53;2.70;;;15.70;59.80;;;;;;1872246;75;21077;-50
2021/09/30 11:05:43;;;;;;;4.00;2.80;;;15.70;58.50;;;;;;1872084;77;21047;-49
2021/09/30 11:08:32;;;;;;;6.67;3.55;;;15.70;58.70;;;;;;1872030;77;21156;-51
2021/09/30 11:11:06;;;;;;;4.22;2.70;;;15.60;60.00;;;;;;1872095;77;21089;-50
2021/09/30 11:13:38;;;;;;;6.45;3.55;;;15.60;59.20;;;;;;1872231;76;21546;-49
2021/09/30 11:16:16;;;;;;;4.87;2.70;;;15.50;59.00;;;;;;1872041;76;21094;-50
2021/09/30 11:18:51;;;;;;;8.03;3.67;;;15.50;59.00;;;;;;1872093;77;21086;-50
2021/09/30 11:24:05;;;;;;;6.40;4.05;;;15.50;59.10;;;;;;1872057;77;20111;-50
2021/09/30 11:26:37;;;;;;;4.87;3.60;;;15.40;60.30;;;;;;1872430;76;21185;-50
2021/09/30 11:29:25;;;;;;;3.83;2.58;;;15.50;60.60;;;;;;1870236;77;21047;-49
2021/09/30 11:32:03;;;;;;;8.75;5.67;;;15.50;59.60;;;;;;1872007;77;21515;-47
2021/09/30 11:34:46;;;;;;;5.17;3.85;;;15.50;59.30;;;;;;1872539;77;21457;-50
2021/09/30 11:37:26;;;;;;;4.25;2.85;;;15.50;59.50;;;;;;1872527;76;21066;-51
2021/09/30 11:39:58;;;;;;;3.77;2.72;;;15.50;59.30;;;;;;1872848;77;21038;-49
2021/09/30 11:42:36;;;;;;;5.03;3.67;;;15.50;59.00;;;;;;1872881;77;21438;-50
2021/09/30 11:45:09;;;;;;;9.25;3.90;;;15.50;59.00;;;;;;1872547;76;21050;-50
2021/09/30 11:47:40;;;;;;;4.70;3.30;;;15.60;59.40;;;;;;1872735;77;21003;-51
2021/09/30 11:50:18;;;;;;;5.65;3.65;;;15.60;59.40;;;;;;1872708;77;21077;-47
2021/09/30 11:52:58;;;;;;;2.90;2.52;;;15.70;59.60;;;;;;1872646;77;21088;-45
2021/09/30 11:55:29;;;;;;;6.58;3.75;;;15.90;57.60;;;;;;1889435;75;21065;-48
2021/09/30 11:58:01;;;;;;;6.78;3.45;;;16.00;58.40;;;;;;1891690;76;21072;-49
2021/09/30 12:00:33;;;;;;;9.30;3.50;;;16.10;57.40;;;;;;1891726;76;21065;-50
2021/09/30 12:03:04;;;;;;;5.55;3.33;;;16.10;57.00;;;;;;1891652;76;21092;-48
2021/09/30 12:05:39;;;;;;;3.65;2.90;;;16.10;57.00;;;;;;1891750;76;21049;-45
2021/09/30 12:08:09;;;;;;;6.60;3.22;;;16.10;56.90;;;;;;1891767;76;21046;-45
2021/09/30 12:10:40;;;;;;;7.78;3.70;;;16.10;56.70;;;;;;1891784;76;21030;-48
2021/09/30 12:13:20;;;;;;;7.22;3.47;;;16.10;56.20;;;;;;1891672;76;21026;-47
2021/09/30 12:15:50;;;;;;;8.65;4.12;;;16.10;57.10;;;;;;1891755;75;21088;-48
2021/09/30 12:18:22;;;;;;;5.12;4.22;;;16.20;56.80;;;;;;1891766;76;21092;-48
2021/09/30 12:20:55;;;;;;;4.20;3.72;;;16.20;57.10;;;;;;1891795;76;21192;-49
2021/09/30 12:23:24;;;;;;;4.35;2.45;;;16.30;56.20;;;;;;1891643;75;21108;-50
2021/09/30 12:25:54;;;;;;;6.87;3.02;;;16.30;56.30;;;;;;1891663;76;21136;-49
2021/09/30 12:28:24;;;;;;;7.85;4.03;;;16.30;55.90;;;;;;1891703;76;21081;-49
2021/09/30 12:30:53;;;;;;;5.97;3.40;;;16.30;55.60;;;;;;1891695;76;21074;-48
2021/09/30 12:33:25;;;;;;;6.83;3.00;;;16.20;55.90;;;;;;1891747;76;21092;-46
2021/09/30 12:35:58;;;;;;;3.98;2.58;;;16.20;55.70;;;;;;1890900;75;21054;-49
2021/09/30 12:38:27;;;;;;;3.80;2.92;;;16.20;56.10;;;;;;1890712;75;21062;-46
2021/09/30 12:41:01;;;;;;;2.75;2.40;;;16.10;56.20;;;;;;1891915;76;21473;-46
2021/09/30 12:43:31;;;;;;;7.00;3.45;;;16.10;56.40;;;;;;1891599;75;21022;-48
2021/09/30 12:46:06;;;;;;;4.30;2.80;;;16.10;56.50;;;;;;1891860;76;21088;-49
2021/09/30 12:48:37;;;;;;;5.92;2.80;;;16.10;56.70;;;;;;1891830;76;21088;-49
2021/09/30 12:51:09;;;;;;;5.22;2.90;;;16.10;56.50;;;;;;1891847;76;21092;-49
2021/09/30 12:53:55;;;;;;;4.00;3.42;;;16.00;56.50;;;;;;1892011;76;21460;-49
2021/09/30 12:56:30;;;;;;;5.47;2.80;;;15.90;56.90;;;;;;1884729;75;21049;-48
2021/09/30 12:59:14;;;;;;;8.93;4.10;;;15.90;57.00;;;;;;1885087;76;21081;-50
2021/09/30 13:01:44;;;;;;;4.37;3.40;;;15.80;57.30;;;;;;1884912;75;21113;-49
2021/09/30 13:04:22;;;;;;;6.90;4.22;;;15.80;57.90;;;;;;1884672;76;21046;-48
2021/09/30 13:07:03;;;;;;;4.95;2.83;;;15.80;57.80;;;;;;1884694;76;21035;-48
2021/09/30 13:09:34;;;;;;;4.37;3.20;;;15.70;58.00;;;;;;1884780;76;21433;-49
2021/09/30 13:12:15;;;;;;;2.42;2.08;;;15.70;58.30;;;;;;1884674;75;21090;-46
2021/09/30 13:14:53;;;;;;;6.45;3.80;;;15.70;57.50;;;;;;1884766;76;21132;-50
2021/09/30 13:17:27;;;;;;;9.38;3.70;;;15.70;58.30;;;;;;1884743;75;21022;-46
2021/09/30 13:20:06;;;;;;;4.78;3.08;;;15.70;58.40;;;;;;1884728;75;21072;-49
2021/09/30 13:22:36;;;;;;;4.55;2.85;;;15.60;58.20;;;;;;1884598;76;21047;-48
2021/09/30 13:25:11;;;;;;;4.72;2.35;;;15.60;58.40;;;;;;1884771;76;21015;-49
2021/09/30 13:27:43;;;;;;;5.40;3.05;;;15.60;58.00;;;;;;1883901;76;21045;-48
2021/09/30 13:30:15;;;;;;;4.00;2.80;;;15.60;58.30;;;;;;1884797;76;21085;-50
2021/09/30 13:32:46;;;;;;;3.77;2.40;;;15.50;58.40;;;;;;1884730;76;21088;-48
2021/09/30 13:35:16;;;;;;;3.83;3.12;;;15.50;57.90;;;;;;1884733;75;21007;-48
2021/09/30 13:37:46;;;;;;;4.67;2.35;;;15.50;58.40;;;;;;1884689;75;21159;-49
2021/09/30 13:40:15;;;;;;;3.08;2.35;;;15.50;58.40;;;;;;1884841;76;21027;-48
2021/09/30 13:42:45;;;;;;;3.27;2.58;;;15.40;57.90;;;;;;1884815;76;21112;-50
2021/09/30 13:45:16;;;;;;;14.13;3.75;;;15.40;58.20;;;;;;1884653;76;21092;-49
2021/09/30 13:47:46;;;;;;;4.67;2.72;;;15.40;58.20;;;;;;1862722;76;21018;-49
2021/09/30 13:50:20;;;;;;;2.70;2.30;;;15.30;58.20;;;;;;1884544;75;21010;-47
2021/09/30 13:52:52;;;;;;;5.05;3.80;;;15.20;58.30;;;;;;1884658;76;21019;-49
2021/09/30 13:55:22;;;;;;;7.20;4.03;;;15.30;58.60;;;;;;1880269;75;21031;-49
2021/09/30 13:57:52;;;;;;;7.65;3.50;;;15.20;59.00;;;;;;1872830;75;21097;-49
2021/09/30 14:00:22;;;;;;;4.70;3.05;;;15.30;59.00;;;;;;1872711;77;21007;-49
2021/09/30 14:02:53;;;;;;;7.53;3.55;;;15.20;58.70;;;;;;1872677;75;21027;-50
2021/09/30 14:05:23;;;;;;;6.45;3.45;;;15.20;58.50;;;;;;1872879;77;21441;-48
2021/09/30 14:07:52;;;;;;;8.60;4.15;;;15.10;58.70;;;;;;1873030;77;21007;-49
2021/09/30 14:10:21;;;;;;;4.15;2.77;;;15.00;59.20;;;;;;1873007;75;21031;-47
2021/09/30 14:12:51;;;;;;;5.25;3.55;;;14.90;59.40;;;;;;1872911;76;21030;-49
2021/09/30 14:15:21;;;;;;;6.25;3.45;;;14.80;59.90;;;;;;1872871;75;21059;-49
2021/09/30 14:17:50;;;;;;;5.05;3.40;;;14.80;60.50;;;;;;1872851;77;21054;-48
2021/09/30 14:20:20;;;;;;;5.28;3.27;;;14.80;60.40;;;;;;1872800;77;21073;-47
2021/09/30 14:22:49;;;;;;;2.72;2.47;;;14.70;60.60;;;;;;1872879;77;21097;-47
2021/09/30 14:25:19;;;;;;;4.60;3.35;;;14.70;60.80;;;;;;1872777;77;21035;-46
2021/09/30 14:27:48;;;;;;;3.42;2.90;;;14.70;61.10;;;;;;1872802;77;21074;-47
2021/09/30 14:30:17;;;;;;;5.25;3.17;;;14.60;61.00;;;;;;1872932;75;21027;-47
2021/09/30 14:32:49;;;;;;;2.92;2.52;;;14.50;61.20;;;;;;1872899;75;21031;-49
2021/09/30 14:35:19;;;;;;;3.30;2.55;;;14.50;61.50;;;;;;1872920;77;21027;-50
2021/09/30 14:37:49;;;;;;;5.17;3.45;;;14.50;61.80;;;;;;1872842;77;21089;-49
2021/09/30 14:40:18;;;;;;;3.65;2.40;;;14.50;62.50;;;;;;1872976;75;21031;-47
2021/09/30 14:42:48;;;;;;;7.83;2.52;;;14.50;61.90;;;;;;1872855;76;21141;-48
2021/09/30 14:45:17;;;;;;;5.47;3.77;;;14.50;62.10;;;;;;1872907;77;21015;-49
2021/09/30 14:47:47;;;;;;;3.33;2.33;;;14.40;62.10;;;;;;1872757;76;21042;-47
2021/09/30 14:50:16;;;;;;;11.12;3.08;;;14.50;62.10;;;;;;1872845;76;21035;-46
2021/09/30 14:52:46;;;;;;;6.85;4.05;;;14.40;62.20;;;;;;1872677;77;21122;-48
2021/09/30 14:55:15;;;;;;;6.47;3.52;;;14.40;62.20;;;;;;1873380;75;21034;-47
2021/09/30 14:57:45;;;;;;;9.90;7.30;;;14.30;62.00;;;;;;1882206;76;21074;-45
2021/09/30 15:00:15;;;;;;;3.98;3.58;;;14.30;62.00;;;;;;1882361;76;21160;-48
2021/09/30 15:02:44;;;;;;;13.58;4.15;;;14.20;62.10;;;;;;1882172;76;21062;-48
2021/09/30 15:05:13;;;;;;;5.70;2.98;;;14.20;62.20;;;;;;1882282;76;21019;-48
2021/09/30 15:07:43;;;;;;;6.30;3.62;;;14.20;62.30;;;;;;1882138;76;21034;-46
2021/09/30 15:10:12;;;;;;;5.22;2.92;;;14.10;62.30;;;;;;1882251;76;21092;-49
2021/09/30 15:12:42;;;;;;;7.33;3.62;;;14.10;62.30;;;;;;1882213;76;21034;-49
2021/09/30 15:15:12;;;;;;;6.62;3.47;;;14.00;62.30;;;;;;1882576;76;21039;-46
2021/09/30 15:23:01;;;;;;;10.53;4.85;;;13.90;63.00;;;;;;1882562;76;21254;-46
2021/09/30 15:25:31;;;;;;;6.15;4.40;;;13.90;63.20;;;;;;1882411;75;21026;-46
2021/09/30 15:28:01;;;;;;;6.22;5.05;;;13.80;63.30;;;;;;1882288;76;21030;-48
2021/09/30 15:30:30;;;;;;;8.70;5.95;;;13.80;63.50;;;;;;1882417;76;21089;-46
2021/09/30 15:33:02;;;;;;;16.62;7.15;;;13.70;63.60;;;;;;1882395;76;21051;-48
2021/09/30 15:35:31;;;;;;;10.30;5.50;;;13.70;63.80;;;;;;1882442;76;21441;-45
2021/09/30 15:38:00;;;;;;;7.37;5.03;;;13.70;63.90;;;;;;1882527;75;21006;-48
2021/09/30 15:40:30;;;;;;;7.85;4.40;;;13.60;64.10;;;;;;1882459;76;21031;-47
2021/09/30 15:42:59;;;;;;;10.95;4.83;;;13.60;64.20;;;;;;1882287;76;21046;-49
2021/09/30 15:45:29;;;;;;;10.40;5.83;;;13.60;64.30;;;;;;1882295;75;21096;-47
2021/09/30 15:47:58;;;;;;;5.85;4.53;;;13.50;64.40;;;;;;1882334;76;21027;-45
2021/09/30 15:50:30;;;;;;;4.87;4.25;;;13.50;64.50;;;;;;1882365;76;21089;-46
2021/09/30 15:52:59;;;;;;;4.37;3.60;;;13.50;64.50;;;;;;1882383;76;21542;-48
2021/09/30 15:55:29;;;;;;;4.22;3.60;;;13.50;64.70;;;;;;1882245;75;21081;-49
2021/09/30 15:57:58;;;;;;;4.40;3.90;;;13.40;64.50;;;;;;1881958;75;21027;-45
2021/09/30 16:00:29;;;;;;;3.67;2.72;;;13.40;64.50;;;;;;1882283;76;21007;-46
2021/09/30 16:02:58;;;;;;;3.95;2.80;;;13.40;64.40;;;;;;1882303;76;21026;-49
2021/09/30 16:05:27;;;;;;;3.83;2.60;;;13.40;64.70;;;;;;1882292;76;21022;-50
2021/09/30 16:07:57;;;;;;;13.13;4.15;;;13.40;64.60;;;;;;1882371;76;21088;-48
2021/09/30 16:10:26;;;;;;;5.40;3.87;;;13.40;64.70;;;;;;1882366;76;21164;-47
2021/09/30 16:12:56;;;;;;;5.90;3.22;;;13.40;64.70;;;;;;1882607;76;21019;-46
2021/09/30 16:15:25;;;;;;;6.00;3.70;;;13.40;64.60;;;;;;1882398;76;21089;-49
2021/09/30 16:17:55;;;;;;;5.28;3.10;;;13.40;64.70;;;;;;1882602;76;21073;-46
2021/09/30 16:20:24;;;;;;;6.42;2.70;;;13.40;64.80;;;;;;1882546;76;21094;-47
2021/09/30 16:22:54;;;;;;;4.45;2.77;;;13.40;64.90;;;;;;1882520;76;21030;-47
2021/09/30 16:25:25;;;;;;;3.87;2.62;;;13.40;65.20;;;;;;1882581;76;21066;-48
2021/09/30 16:27:54;;;;;;;8.13;3.83;;;13.40;65.50;;;;;;1882443;76;21030;-48